sensor_id;sensor_type;location;lat;lon;timestamp;pressure;altitude;pressure_sealevel;temperature;humidity
21300;BME280;10809;49.476;11.016;2023-05-11T00:01:08;98010.50;;;13.87;59.95
21300;BME280;10809;49.476;11.016;2023-05-11T00:03:39;98013.16;;;13.87;60.11
21300;BME280;10809;49.476;11.016;2023-05-11T00:06:09;98002.63;;;13.86;60.31
21300;BME280;10809;49.476;11.016;2023-05-11T00:08:40;98007.22;;;13.84;60.31
21300;BME280;10809;49.476;11.016;2023-05-11T00:11:10;98009.00;;;13.83;60.27
21300;BME280;10809;49.476;11.016;2023-05-11T00:13:41;98004.78;;;13.81;59.94
21300;BME280;10809;49.476;11.016;2023-05-11T00:16:14;98005.75;;;13.80;60.25
21300;BME280;10809;49.476;11.016;2023-05-11T00:18:45;98006.78;;;13.77;60.68
21300;BME280;10809;49.476;11.016;2023-05-11T00:21:15;98000.53;;;13.78;60.36
21300;BME280;10809;49.476;11.016;2023-05-11T00:23:46;97998.81;;;13.77;60.55
21300;BME280;10809;49.476;11.016;2023-05-11T00:28:58;97996.38;;;13.74;60.61
21300;BME280;10809;49.476;11.016;2023-05-11T00:31:29;97993.72;;;13.74;60.54
21300;BME280;10809;49.476;11.016;2023-05-11T00:33:59;97997.34;;;13.73;60.46
21300;BME280;10809;49.476;11.016;2023-05-11T00:36:30;97995.66;;;13.72;60.38
21300;BME280;10809;49.476;11.016;2023-05-11T00:39:00;97993.94;;;13.71;60.57
21300;BME280;10809;49.476;11.016;2023-05-11T00:41:31;97990.56;;;13.69;60.44
21300;BME280;10809;49.476;11.016;2023-05-11T00:44:01;97995.03;;;13.69;60.65
21300;BME280;10809;49.476;11.016;2023-05-11T00:46:32;97984.50;;;13.67;60.72
21300;BME280;10809;49.476;11.016;2023-05-11T00:49:09;97989.94;;;13.66;60.71
21300;BME280;10809;49.476;11.016;2023-05-11T00:51:45;97989.94;;;13.66;60.60
21300;BME280;10809;49.476;11.016;2023-05-11T00:54:16;97982.91;;;13.65;60.84
21300;BME280;10809;49.476;11.016;2023-05-11T00:56:50;97986.53;;;13.64;60.54
21300;BME280;10809;49.476;11.016;2023-05-11T00:59:21;97983.97;;;13.62;60.64
21300;BME280;10809;49.476;11.016;2023-05-11T01:01:55;97987.59;;;13.61;60.82
21300;BME280;10809;49.476;11.016;2023-05-11T01:04:26;97986.84;;;13.59;60.84
21300;BME280;10809;49.476;11.016;2023-05-11T01:07:02;97996.69;;;13.59;60.79
21300;BME280;10809;49.476;11.016;2023-05-11T01:09:45;97986.16;;;13.57;60.88
21300;BME280;10809;49.476;11.016;2023-05-11T01:15:35;97992.41;;;13.56;60.90
21300;BME280;10809;49.476;11.016;2023-05-11T01:20:56;98001.47;;;13.54;60.84
21300;BME280;10809;49.476;11.016;2023-05-11T01:23:53;97988.28;;;13.52;60.97
21300;BME280;10809;49.476;11.016;2023-05-11T01:31:46;97993.94;;;13.48;61.08
21300;BME280;10809;49.476;11.016;2023-05-11T01:34:23;97988.72;;;13.46;60.95
21300;BME280;10809;49.476;11.016;2023-05-11T01:37:05;97994.03;;;13.46;61.18
21300;BME280;10809;49.476;11.016;2023-05-11T01:39:48;97987.97;;;13.44;61.12
21300;BME280;10809;49.476;11.016;2023-05-11T01:42:23;97985.31;;;13.44;61.22
21300;BME280;10809;49.476;11.016;2023-05-11T01:44:56;97986.25;;;13.43;61.24
21300;BME280;10809;49.476;11.016;2023-05-11T01:47:29;97992.50;;;13.42;61.65
21300;BME280;10809;49.476;11.016;2023-05-11T01:50:01;97985.50;;;13.41;61.49
21300;BME280;10809;49.476;11.016;2023-05-11T01:52:40;97993.59;;;13.40;61.47
21300;BME280;10809;49.476;11.016;2023-05-11T01:55:11;97991.03;;;13.38;61.30
21300;BME280;10809;49.476;11.016;2023-05-11T01:57:53;97992.13;;;13.36;61.44
21300;BME280;10809;49.476;11.016;2023-05-11T02:00:25;97989.47;;;13.36;61.53
21300;BME280;10809;49.476;11.016;2023-05-11T02:02:57;97994.88;;;13.34;61.52
21300;BME280;10809;49.476;11.016;2023-05-11T02:05:32;97988.72;;;13.34;61.56
21300;BME280;10809;49.476;11.016;2023-05-11T02:08:05;97988.81;;;13.32;61.58
21300;BME280;10809;49.476;11.016;2023-05-11T02:10:39;97999.47;;;13.32;61.64
21300;BME280;10809;49.476;11.016;2023-05-11T02:13:11;97987.13;;;13.31;61.69
21300;BME280;10809;49.476;11.016;2023-05-11T02:15:44;97988.06;;;13.30;61.76
21300;BME280;10809;49.476;11.016;2023-05-11T02:18:16;97992.56;;;13.30;61.81
21300;BME280;10809;49.476;11.016;2023-05-11T02:20:48;97982.88;;;13.29;61.92
21300;BME280;10809;49.476;11.016;2023-05-11T02:23:20;97978.50;;;13.28;61.78
21300;BME280;10809;49.476;11.016;2023-05-11T02:25:52;97986.38;;;13.29;61.85
21300;BME280;10809;49.476;11.016;2023-05-11T02:28:23;97986.50;;;13.28;61.98
21300;BME280;10809;49.476;11.016;2023-05-11T02:30:55;97983.94;;;13.26;61.95
21300;BME280;10809;49.476;11.016;2023-05-11T02:33:33;97987.47;;;13.27;62.04
21300;BME280;10809;49.476;11.016;2023-05-11T02:36:04;97985.75;;;13.26;61.95
21300;BME280;10809;49.476;11.016;2023-05-11T02:38:38;97981.28;;;13.26;62.12
21300;BME280;10809;49.476;11.016;2023-05-11T02:41:25;97984.91;;;13.25;62.02
21300;BME280;10809;49.476;11.016;2023-05-11T02:44:02;97987.69;;;13.24;62.06
21300;BME280;10809;49.476;11.016;2023-05-11T02:46:38;97986.81;;;13.23;61.91
21300;BME280;10809;49.476;11.016;2023-05-11T02:49:13;97981.63;;;13.22;61.92
21300;BME280;10809;49.476;11.016;2023-05-11T02:51:51;97972.88;;;13.20;62.41
21300;BME280;10809;49.476;11.016;2023-05-11T02:54:25;97973.84;;;13.19;61.71
21300;BME280;10809;49.476;11.016;2023-05-11T02:56:57;97982.81;;;13.18;61.79
21300;BME280;10809;49.476;11.016;2023-05-11T02:59:29;97986.50;;;13.15;61.92
21300;BME280;10809;49.476;11.016;2023-05-11T03:02:00;97977.81;;;13.13;61.92
21300;BME280;10809;49.476;11.016;2023-05-11T03:04:30;97983.25;;;13.12;62.07
21300;BME280;10809;49.476;11.016;2023-05-11T03:07:01;97978.88;;;13.11;61.82
21300;BME280;10809;49.476;11.016;2023-05-11T03:09:37;97970.28;;;13.07;61.98
21300;BME280;10809;49.476;11.016;2023-05-11T03:12:08;97977.38;;;13.07;62.02
21300;BME280;10809;49.476;11.016;2023-05-11T03:14:43;97982.81;;;13.05;62.03
21300;BME280;10809;49.476;11.016;2023-05-11T03:17:18;97980.25;;;13.03;62.39
21300;BME280;10809;49.476;11.016;2023-05-11T03:19:51;97977.72;;;13.02;62.04
21300;BME280;10809;49.476;11.016;2023-05-11T03:22:25;97976.03;;;13.01;61.83
21300;BME280;10809;49.476;11.016;2023-05-11T03:24:56;97984.09;;;12.99;62.13
21300;BME280;10809;49.476;11.016;2023-05-11T03:27:28;97982.50;;;12.97;62.27
21300;BME280;10809;49.476;11.016;2023-05-11T03:29:59;97972.84;;;12.96;62.39
21300;BME280;10809;49.476;11.016;2023-05-11T03:32:36;97973.81;;;12.95;62.14
21300;BME280;10809;49.476;11.016;2023-05-11T03:35:07;97978.38;;;12.93;62.19
21300;BME280;10809;49.476;11.016;2023-05-11T03:37:39;97976.69;;;12.92;62.24
21300;BME280;10809;49.476;11.016;2023-05-11T03:40:15;97967.09;;;12.89;62.30
21300;BME280;10809;49.476;11.016;2023-05-11T03:42:53;97971.66;;;12.87;62.28
21300;BME280;10809;49.476;11.016;2023-05-11T03:45:27;97970.06;;;12.85;62.27
21300;BME280;10809;49.476;11.016;2023-05-11T03:47:59;97971.03;;;12.84;62.37
21300;BME280;10809;49.476;11.016;2023-05-11T03:50:31;97967.63;;;12.82;62.32
21300;BME280;10809;49.476;11.016;2023-05-11T03:53:04;97967.63;;;12.82;62.49
21300;BME280;10809;49.476;11.016;2023-05-11T03:55:36;97963.28;;;12.81;62.69
21300;BME280;10809;49.476;11.016;2023-05-11T03:58:07;97968.59;;;12.81;62.33
21300;BME280;10809;49.476;11.016;2023-05-11T04:00:41;97965.94;;;12.81;62.39
21300;BME280;10809;49.476;11.016;2023-05-11T04:03:12;97964.22;;;12.80;62.37
21300;BME280;10809;49.476;11.016;2023-05-11T04:05:43;97960.75;;;12.79;62.41
21300;BME280;10809;49.476;11.016;2023-05-11T04:08:15;97958.19;;;12.78;62.62
21300;BME280;10809;49.476;11.016;2023-05-11T04:10:46;97963.50;;;12.78;62.59
21300;BME280;10809;49.476;11.016;2023-05-11T04:13:16;97959.13;;;12.77;62.44
21300;BME280;10809;49.476;11.016;2023-05-11T04:15:47;97966.25;;;12.76;62.67
21300;BME280;10809;49.476;11.016;2023-05-11T04:18:17;97960.19;;;12.74;62.69
21300;BME280;10809;49.476;11.016;2023-05-11T04:20:50;97964.66;;;12.74;62.58
21300;BME280;10809;49.476;11.016;2023-05-11T04:23:21;97958.63;;;12.72;62.62
21300;BME280;10809;49.476;11.016;2023-05-11T04:25:55;97957.75;;;12.71;62.54
21300;BME280;10809;49.476;11.016;2023-05-11T04:28:25;97966.59;;;12.72;62.63
21300;BME280;10809;49.476;11.016;2023-05-11T04:31:00;97964.03;;;12.70;62.66
21300;BME280;10809;49.476;11.016;2023-05-11T04:33:31;97960.53;;;12.70;62.77
21300;BME280;10809;49.476;11.016;2023-05-11T04:36:01;97972.09;;;12.69;62.80
21300;BME280;10809;49.476;11.016;2023-05-11T04:38:39;97978.34;;;12.68;62.62
21300;BME280;10809;49.476;11.016;2023-05-11T04:41:22;97966.03;;;12.67;62.55
21300;BME280;10809;49.476;11.016;2023-05-11T04:43:54;97974.22;;;12.64;62.51
21300;BME280;10809;49.476;11.016;2023-05-11T04:46:25;97978.78;;;12.62;62.57
21300;BME280;10809;49.476;11.016;2023-05-11T04:48:58;97971.88;;;12.59;62.65
21300;BME280;10809;49.476;11.016;2023-05-11T04:51:30;97974.53;;;12.59;62.76
21300;BME280;10809;49.476;11.016;2023-05-11T04:54:05;97977.31;;;12.58;62.93
21300;BME280;10809;49.476;11.016;2023-05-11T04:56:38;97973.69;;;12.59;63.14
21300;BME280;10809;49.476;11.016;2023-05-11T04:59:10;97978.16;;;12.58;63.11
21300;BME280;10809;49.476;11.016;2023-05-11T05:01:40;97979.00;;;12.59;63.17
21300;BME280;10809;49.476;11.016;2023-05-11T05:04:11;97979.75;;;12.61;63.17
21300;BME280;10809;49.476;11.016;2023-05-11T05:06:45;97976.13;;;12.62;63.14
21300;BME280;10809;49.476;11.016;2023-05-11T05:09:19;97987.59;;;12.62;63.23
21300;BME280;10809;49.476;11.016;2023-05-11T05:11:52;97980.50;;;12.63;63.19
21300;BME280;10809;49.476;11.016;2023-05-11T05:14:23;97982.19;;;12.64;63.24
21300;BME280;10809;49.476;11.016;2023-05-11T05:16:53;97982.19;;;12.64;63.08
21300;BME280;10809;49.476;11.016;2023-05-11T05:19:24;97981.34;;;12.63;63.17
21300;BME280;10809;49.476;11.016;2023-05-11T05:21:55;97983.88;;;12.65;63.13
21300;BME280;10809;49.476;11.016;2023-05-11T05:24:25;97983.88;;;12.65;63.51
21300;BME280;10809;49.476;11.016;2023-05-11T05:26:56;97986.66;;;12.63;63.13
21300;BME280;10809;49.476;11.016;2023-05-11T05:29:27;97984.00;;;12.63;63.31
21300;BME280;10809;49.476;11.016;2023-05-11T05:31:58;97993.78;;;12.63;63.17
21300;BME280;10809;49.476;11.016;2023-05-11T05:34:29;97989.41;;;12.62;63.31
21300;BME280;10809;49.476;11.016;2023-05-11T05:37:03;97995.59;;;12.62;63.14
21300;BME280;10809;49.476;11.016;2023-05-11T05:39:34;97998.25;;;12.62;63.27
21300;BME280;10809;49.476;11.016;2023-05-11T05:42:04;98000.88;;;12.62;63.41
21300;BME280;10809;49.476;11.016;2023-05-11T05:44:35;98000.88;;;12.62;63.25
21300;BME280;10809;49.476;11.016;2023-05-11T05:47:06;98001.84;;;12.61;63.25
21300;BME280;10809;49.476;11.016;2023-05-11T05:49:38;98006.31;;;12.61;63.29
21300;BME280;10809;49.476;11.016;2023-05-11T05:52:10;97994.81;;;12.60;63.29
21300;BME280;10809;49.476;11.016;2023-05-11T05:54:45;97997.59;;;12.59;63.41
21300;BME280;10809;49.476;11.016;2023-05-11T05:57:19;97998.56;;;12.58;63.29
21300;BME280;10809;49.476;11.016;2023-05-11T05:59:49;98005.75;;;12.56;63.28
21300;BME280;10809;49.476;11.016;2023-05-11T06:02:22;98001.31;;;12.56;63.55
21300;BME280;10809;49.476;11.016;2023-05-11T06:04:53;98009.38;;;12.55;63.76
21300;BME280;10809;49.476;11.016;2023-05-11T06:07:23;98007.59;;;12.55;63.51
21300;BME280;10809;49.476;11.016;2023-05-11T06:09:54;98013.72;;;12.56;63.77
21300;BME280;10809;49.476;11.016;2023-05-11T06:12:24;98008.41;;;12.56;63.57
21300;BME280;10809;49.476;11.016;2023-05-11T06:14:56;98007.59;;;12.55;63.94
21300;BME280;10809;49.476;11.016;2023-05-11T06:17:30;98010.25;;;12.55;63.97
21300;BME280;10809;49.476;11.016;2023-05-11T06:20:01;98011.06;;;12.56;64.00
21300;BME280;10809;49.476;11.016;2023-05-11T06:22:37;98005.75;;;12.56;63.86
21300;BME280;10809;49.476;11.016;2023-05-11T06:25:08;98006.72;;;12.55;63.99
21300;BME280;10809;49.476;11.016;2023-05-11T06:27:41;98000.56;;;12.54;63.96
21300;BME280;10809;49.476;11.016;2023-05-11T06:30:12;98003.22;;;12.54;63.97
21300;BME280;10809;49.476;11.016;2023-05-11T06:32:45;98011.06;;;12.56;64.19
21300;BME280;10809;49.476;11.016;2023-05-11T06:35:17;98010.97;;;12.57;64.21
21300;BME280;10809;49.476;11.016;2023-05-11T06:37:51;98003.75;;;12.59;64.23
21300;BME280;10809;49.476;11.016;2023-05-11T06:40:22;98003.66;;;12.61;64.30
21300;BME280;10809;49.476;11.016;2023-05-11T06:42:53;98007.06;;;12.63;64.03
21300;BME280;10809;49.476;11.016;2023-05-11T06:45:23;98000.03;;;12.62;64.03
21300;BME280;10809;49.476;11.016;2023-05-11T06:47:54;98007.06;;;12.63;63.92
21300;BME280;10809;49.476;11.016;2023-05-11T06:50:26;98011.63;;;12.61;64.02
21300;BME280;10809;49.476;11.016;2023-05-11T06:52:56;98013.41;;;12.60;64.08
21300;BME280;10809;49.476;11.016;2023-05-11T06:55:27;98010.88;;;12.59;63.94
21300;BME280;10809;49.476;11.016;2023-05-11T06:57:57;98011.06;;;12.56;63.96
21300;BME280;10809;49.476;11.016;2023-05-11T07:00:28;98005.03;;;12.54;63.86
21300;BME280;10809;49.476;11.016;2023-05-11T07:02:58;98007.81;;;12.52;63.98
21300;BME280;10809;49.476;11.016;2023-05-11T07:05:29;98012.34;;;12.50;63.97
21300;BME280;10809;49.476;11.016;2023-05-11T07:07:59;98008.00;;;12.49;64.12
21300;BME280;10809;49.476;11.016;2023-05-11T07:10:30;98009.91;;;12.47;64.15
21300;BME280;10809;49.476;11.016;2023-05-11T07:13:01;98015.22;;;12.47;64.46
21300;BME280;10809;49.476;11.016;2023-05-11T07:15:31;98014.34;;;12.47;64.17
21300;BME280;10809;49.476;11.016;2023-05-11T07:18:02;98012.66;;;12.46;64.21
21300;BME280;10809;49.476;11.016;2023-05-11T07:20:32;98015.22;;;12.47;64.43
21300;BME280;10809;49.476;11.016;2023-05-11T07:23:05;98010.78;;;12.48;64.69
21300;BME280;10809;49.476;11.016;2023-05-11T07:25:36;98022.13;;;12.50;64.69
21300;BME280;10809;49.476;11.016;2023-05-11T07:28:06;98022.00;;;12.51;64.69
21300;BME280;10809;49.476;11.016;2023-05-11T07:30:37;98018.31;;;12.54;64.79
21300;BME280;10809;49.476;11.016;2023-05-11T07:33:07;98017.34;;;12.55;64.63
21300;BME280;10809;49.476;11.016;2023-05-11T07:35:38;98014.69;;;12.55;64.76
21300;BME280;10809;49.476;11.016;2023-05-11T07:38:08;98019.91;;;12.56;64.59
21300;BME280;10809;49.476;11.016;2023-05-11T07:40:41;98023.41;;;12.57;64.75
21300;BME280;10809;49.476;11.016;2023-05-11T07:43:11;98015.34;;;12.58;64.95
21300;BME280;10809;49.476;11.016;2023-05-11T07:45:42;98021.38;;;12.60;64.81
21300;BME280;10809;49.476;11.016;2023-05-11T07:48:12;98021.28;;;12.62;64.82
21300;BME280;10809;49.476;11.016;2023-05-11T07:50:43;98022.03;;;12.64;64.87
21300;BME280;10809;49.476;11.016;2023-05-11T07:53:14;98019.38;;;12.64;64.90
21300;BME280;10809;49.476;11.016;2023-05-11T07:55:45;98019.28;;;12.65;64.93
21300;BME280;10809;49.476;11.016;2023-05-11T07:58:15;98014.81;;;12.66;65.13
21300;BME280;10809;49.476;11.016;2023-05-11T08:00:46;98020.84;;;12.68;65.14
21300;BME280;10809;49.476;11.016;2023-05-11T08:03:16;98018.09;;;12.69;65.05
21300;BME280;10809;49.476;11.016;2023-05-11T08:05:47;98018.84;;;12.71;65.01
21300;BME280;10809;49.476;11.016;2023-05-11T08:08:23;98016.09;;;12.73;65.44
21300;BME280;10809;49.476;11.016;2023-05-11T08:10:54;98020.22;;;12.77;65.27
21300;BME280;10809;49.476;11.016;2023-05-11T08:13:25;98026.28;;;12.79;65.20
21300;BME280;10809;49.476;11.016;2023-05-11T08:15:58;98028.84;;;12.80;65.01
21300;BME280;10809;49.476;11.016;2023-05-11T08:18:29;98019.19;;;12.79;64.86
21300;BME280;10809;49.476;11.016;2023-05-11T08:20:59;98023.63;;;12.79;64.96
21300;BME280;10809;49.476;11.016;2023-05-11T08:23:33;98019.28;;;12.78;64.75
21300;BME280;10809;49.476;11.016;2023-05-11T08:26:03;98013.13;;;12.77;64.81
21300;BME280;10809;49.476;11.016;2023-05-11T08:28:34;98017.69;;;12.75;64.94
21300;BME280;10809;49.476;11.016;2023-05-11T08:31:04;98017.78;;;12.74;64.83
21300;BME280;10809;49.476;11.016;2023-05-11T08:33:35;98019.72;;;12.72;64.90
21300;BME280;10809;49.476;11.016;2023-05-11T08:36:06;98025.97;;;12.71;64.82
21300;BME280;10809;49.476;11.016;2023-05-11T08:38:36;98021.72;;;12.68;64.90
21300;BME280;10809;49.476;11.016;2023-05-11T08:41:07;98023.63;;;12.66;64.96
21300;BME280;10809;49.476;11.016;2023-05-11T08:43:41;98012.16;;;12.66;64.80
21300;BME280;10809;49.476;11.016;2023-05-11T08:46:16;98023.94;;;12.62;64.98
21300;BME280;10809;49.476;11.016;2023-05-11T08:48:50;98015.34;;;12.58;65.19
21300;BME280;10809;49.476;11.016;2023-05-11T08:51:22;98016.38;;;12.56;65.11
21300;BME280;10809;49.476;11.016;2023-05-11T08:53:53;98012.16;;;12.53;65.28
21300;BME280;10809;49.476;11.016;2023-05-11T08:56:36;98013.94;;;12.53;65.01
21300;BME280;10809;49.476;11.016;2023-05-11T08:59:07;98020.13;;;12.53;65.77
21300;BME280;10809;49.476;11.016;2023-05-11T09:01:39;98016.59;;;12.53;65.60
21300;BME280;10809;49.476;11.016;2023-05-11T09:04:10;98015.66;;;12.54;65.50
21300;BME280;10809;49.476;11.016;2023-05-11T09:06:41;98022.66;;;12.55;65.61
21300;BME280;10809;49.476;11.016;2023-05-11T09:09:18;98021.69;;;12.56;65.51
21300;BME280;10809;49.476;11.016;2023-05-11T09:11:49;98020.88;;;12.55;65.47
21300;BME280;10809;49.476;11.016;2023-05-11T09:14:19;98011.19;;;12.54;65.48
21300;BME280;10809;49.476;11.016;2023-05-11T09:16:50;98016.50;;;12.54;65.55
21300;BME280;10809;49.476;11.016;2023-05-11T09:19:20;98016.38;;;12.56;65.91
21300;BME280;10809;49.476;11.016;2023-05-11T09:21:51;98023.41;;;12.57;65.85
21300;BME280;10809;49.476;11.016;2023-05-11T09:24:22;98020.66;;;12.58;65.66
21300;BME280;10809;49.476;11.016;2023-05-11T09:27:13;98014.50;;;12.58;65.72
21300;BME280;10809;49.476;11.016;2023-05-11T09:29:44;98015.34;;;12.58;65.56
21300;BME280;10809;49.476;11.016;2023-05-11T09:32:14;98022.56;;;12.56;65.44
21300;BME280;10809;49.476;11.016;2023-05-11T09:34:45;98017.34;;;12.55;65.64
21300;BME280;10809;49.476;11.016;2023-05-11T09:37:17;98019.25;;;12.53;65.96
21300;BME280;10809;49.476;11.016;2023-05-11T09:39:52;98012.16;;;12.53;65.72
21300;BME280;10809;49.476;11.016;2023-05-11T09:42:23;98014.81;;;12.53;66.02
21300;BME280;10809;49.476;11.016;2023-05-11T09:44:53;98013.00;;;12.54;66.29
21300;BME280;10809;49.476;11.016;2023-05-11T09:47:24;98014.59;;;12.56;66.33
21300;BME280;10809;49.476;11.016;2023-05-11T09:49:54;98009.94;;;12.60;66.84
21300;BME280;10809;49.476;11.016;2023-05-11T09:52:25;98009.63;;;12.64;66.70
21300;BME280;10809;49.476;11.016;2023-05-11T09:54:55;98011.09;;;12.68;66.56
21300;BME280;10809;49.476;11.016;2023-05-11T09:59:58;98001.72;;;12.75;66.35
21300;BME280;10809;49.476;11.016;2023-05-11T10:02:30;98007.81;;;12.77;66.46
21300;BME280;10809;49.476;11.016;2023-05-11T10:05:10;98000.69;;;12.78;66.21
21300;BME280;10809;49.476;11.016;2023-05-11T10:07:41;97998.88;;;12.78;66.47
21300;BME280;10809;49.476;11.016;2023-05-11T10:10:12;97997.94;;;12.79;66.50
21300;BME280;10809;49.476;11.016;2023-05-11T10:12:43;98001.53;;;12.78;66.44
21300;BME280;10809;49.476;11.016;2023-05-11T10:15:14;98004.06;;;12.80;66.35
21300;BME280;10809;49.476;11.016;2023-05-11T10:17:47;98004.06;;;12.80;66.29
21300;BME280;10809;49.476;11.016;2023-05-11T10:20:18;98000.69;;;12.78;66.28
21300;BME280;10809;49.476;11.016;2023-05-11T10:22:51;97997.28;;;12.76;66.21
21300;BME280;10809;49.476;11.016;2023-05-11T10:25:24;98007.91;;;12.76;66.24
21300;BME280;10809;49.476;11.016;2023-05-11T10:27:55;97996.53;;;12.74;66.41
21300;BME280;10809;49.476;11.016;2023-05-11T10:30:26;97989.53;;;12.73;66.39
21300;BME280;10809;49.476;11.016;2023-05-11T10:32:57;97987.84;;;12.72;66.42
21300;BME280;10809;49.476;11.016;2023-05-11T10:35:29;97989.63;;;12.71;66.61
21300;BME280;10809;49.476;11.016;2023-05-11T10:38:01;97988.66;;;12.72;66.62
21300;BME280;10809;49.476;11.016;2023-05-11T10:40:40;97986.00;;;12.72;66.55
21300;BME280;10809;49.476;11.016;2023-05-11T10:43:53;97977.09;;;12.73;66.67
21300;BME280;10809;49.476;11.016;2023-05-11T10:48:53;97979.00;;;12.71;66.53
21300;BME280;10809;49.476;11.016;2023-05-11T10:51:58;97979.00;;;12.71;66.52
21300;BME280;10809;49.476;11.016;2023-05-11T11:03:27;97966.69;;;12.70;66.63
21300;BME280;10809;49.476;11.016;2023-05-11T11:05:57;97975.50;;;12.71;66.78
21300;BME280;10809;49.476;11.016;2023-05-11T11:08:28;97972.84;;;12.71;66.64
21300;BME280;10809;49.476;11.016;2023-05-11T11:10:59;97967.41;;;12.72;66.79
21300;BME280;10809;49.476;11.016;2023-05-11T11:13:55;97969.13;;;12.73;66.80
21300;BME280;10809;49.476;11.016;2023-05-11T11:16:25;97969.97;;;12.74;66.58
21300;BME280;10809;49.476;11.016;2023-05-11T11:21:59;97968.28;;;12.73;66.63
21300;BME280;10809;49.476;11.016;2023-05-11T11:27:08;97963.06;;;12.71;66.87
21300;BME280;10809;49.476;11.016;2023-05-11T11:29:39;97971.03;;;12.71;66.84
21300;BME280;10809;49.476;11.016;2023-05-11T11:34:50;97972.00;;;12.70;66.99
21300;BME280;10809;49.476;11.016;2023-05-11T11:37:20;97967.53;;;12.71;66.87
21300;BME280;10809;49.476;11.016;2023-05-11T11:39:53;97966.59;;;12.72;67.31
21300;BME280;10809;49.476;11.016;2023-05-11T11:45:25;97967.31;;;12.74;67.28
21300;BME280;10809;49.476;11.016;2023-05-11T11:50:38;97968.16;;;12.74;66.86
21300;BME280;10809;49.476;11.016;2023-05-11T11:53:10;97977.94;;;12.74;66.94
21300;BME280;10809;49.476;11.016;2023-05-11T12:01:26;97987.09;;;12.70;66.81
21300;BME280;10809;49.476;11.016;2023-05-11T12:06:38;97985.50;;;12.67;66.97
21300;BME280;10809;49.476;11.016;2023-05-11T12:09:10;97986.44;;;12.66;67.11
21300;BME280;10809;49.476;11.016;2023-05-11T12:11:45;97980.28;;;12.66;67.38
21300;BME280;10809;49.476;11.016;2023-05-11T12:14:17;97985.59;;;12.66;67.54
21300;BME280;10809;49.476;11.016;2023-05-11T12:17:02;97988.97;;;12.68;67.72
21300;BME280;10809;49.476;11.016;2023-05-11T12:19:33;97985.41;;;12.69;67.74
21300;BME280;10809;49.476;11.016;2023-05-11T12:22:03;97975.59;;;12.69;67.52
21300;BME280;10809;49.476;11.016;2023-05-11T12:24:34;97983.56;;;12.69;67.46
21300;BME280;10809;49.476;11.016;2023-05-11T12:27:04;97979.22;;;12.68;67.58
21300;BME280;10809;49.476;11.016;2023-05-11T12:29:35;97979.22;;;12.68;67.49
21300;BME280;10809;49.476;11.016;2023-05-11T12:32:10;97983.66;;;12.68;67.50
21300;BME280;10809;49.476;11.016;2023-05-11T12:34:41;97973.03;;;12.68;67.76
21300;BME280;10809;49.476;11.016;2023-05-11T12:37:12;97980.09;;;12.69;67.78
21300;BME280;10809;49.476;11.016;2023-05-11T12:39:42;97974.66;;;12.70;68.04
21300;BME280;10809;49.476;11.016;2023-05-11T12:42:17;97975.38;;;12.72;68.00
21300;BME280;10809;49.476;11.016;2023-05-11T12:44:48;97978.78;;;12.74;68.15
21300;BME280;10809;49.476;11.016;2023-05-11T12:47:18;97972.41;;;12.77;68.07
21300;BME280;10809;49.476;11.016;2023-05-11T12:49:49;97976.69;;;12.79;68.21
21300;BME280;10809;49.476;11.016;2023-05-11T12:52:22;97986.22;;;12.82;68.20
21300;BME280;10809;49.476;11.016;2023-05-11T12:54:53;97981.78;;;12.82;68.09
21300;BME280;10809;49.476;11.016;2023-05-11T12:57:29;97987.91;;;12.83;68.08
21300;BME280;10809;49.476;11.016;2023-05-11T13:00:13;97991.53;;;12.82;67.83
21300;BME280;10809;49.476;11.016;2023-05-11T13:02:55;97981.78;;;12.82;67.93
21300;BME280;10809;49.476;11.016;2023-05-11T13:05:29;97984.53;;;12.81;67.78
21300;BME280;10809;49.476;11.016;2023-05-11T13:08:02;97989.09;;;12.79;67.79
21300;BME280;10809;49.476;11.016;2023-05-11T13:10:33;97984.00;;;12.76;67.86
21300;BME280;10809;49.476;11.016;2023-05-11T13:13:03;97980.59;;;12.74;67.81
21300;BME280;10809;49.476;11.016;2023-05-11T13:15:48;97974.56;;;12.72;67.78
21300;BME280;10809;49.476;11.016;2023-05-11T13:18:19;97968.38;;;12.71;68.06
21300;BME280;10809;49.476;11.016;2023-05-11T13:21:04;97961.38;;;12.70;68.04
21300;BME280;10809;49.476;11.016;2023-05-11T13:23:34;97961.28;;;12.72;68.22
21300;BME280;10809;49.476;11.016;2023-05-11T13:26:06;97958.63;;;12.72;68.46
21300;BME280;10809;49.476;11.016;2023-05-11T13:28:36;97962.00;;;12.74;68.88
21300;BME280;10809;49.476;11.016;2023-05-11T13:31:07;97961.06;;;12.75;68.58
21300;BME280;10809;49.476;11.016;2023-05-11T13:33:45;97961.78;;;12.77;68.63
21300;BME280;10809;49.476;11.016;2023-05-11T13:36:24;97966.06;;;12.79;68.68
21300;BME280;10809;49.476;11.016;2023-05-11T13:38:55;97967.63;;;12.82;68.77
21300;BME280;10809;49.476;11.016;2023-05-11T13:41:26;97969.22;;;12.84;68.77
21300;BME280;10809;49.476;11.016;2023-05-11T13:43:56;97963.78;;;12.86;68.91
21300;BME280;10809;49.476;11.016;2023-05-11T13:46:27;97962.75;;;12.88;68.97
21300;BME280;10809;49.476;11.016;2023-05-11T13:48:58;97962.53;;;12.91;69.01
21300;BME280;10809;49.476;11.016;2023-05-11T13:51:30;97962.31;;;12.94;69.01
21300;BME280;10809;49.476;11.016;2023-05-11T13:54:01;97957.75;;;12.96;68.85
21300;BME280;10809;49.476;11.016;2023-05-11T13:56:31;97958.47;;;12.98;69.06
21300;BME280;10809;49.476;11.016;2023-05-11T13:59:05;97957.53;;;12.99;68.97
21300;BME280;10809;49.476;11.016;2023-05-11T14:01:36;97952.09;;;13.01;69.11
21300;BME280;10809;49.476;11.016;2023-05-11T14:04:07;97956.34;;;13.03;69.16
21300;BME280;10809;49.476;11.016;2023-05-11T14:06:37;97956.13;;;13.07;68.99
21300;BME280;10809;49.476;11.016;2023-05-11T14:09:08;97956.00;;;13.08;68.82